createdAt,value
2024-02-28T00:02:04.934Z,100314.38
2024-02-28T00:04:31.575Z,100304.41
2024-02-28T00:06:58.515Z,100319.19
2024-02-28T00:09:25.293Z,100294.06
2024-02-28T00:11:52.051Z,100304.84
2024-02-28T00:14:18.693Z,100305.81
2024-02-28T00:16:46.659Z,100309.03
2024-02-28T00:19:14.325Z,100291.53
2024-02-28T00:21:42.409Z,100306.25
2024-02-28T00:24:10.061Z,100312.25
2024-02-28T00:26:37.622Z,100312.09
2024-02-28T00:29:04.484Z,100305.00
2024-02-28T00:31:31.214Z,100309.28
2024-02-28T00:33:58.023Z,100300.47
2024-02-28T00:36:24.830Z,100298.97
2024-02-28T00:38:51.591Z,100289.19
2024-02-28T00:41:18.294Z,100302.13
2024-02-28T00:43:45.110Z,100295.47
2024-02-28T00:46:13.410Z,100280.38
2024-02-28T00:48:40.887Z,100293.38
2024-02-28T00:51:09.419Z,100296.72
2024-02-28T00:53:36.206Z,100284.63
2024-02-28T00:56:03.161Z,100282.28
2024-02-28T00:58:31.303Z,100283.41
2024-02-28T01:00:58.973Z,100269.16
2024-02-28T01:03:26.099Z,100283.94
2024-02-28T01:05:53.360Z,100275.34
2024-02-28T01:08:20.242Z,100277.88
2024-02-28T01:10:47.621Z,100273.22
2024-02-28T01:13:14.653Z,100272.72
2024-02-28T01:15:43.248Z,100272.56
2024-02-28T01:18:11.334Z,100255.75
2024-02-28T01:20:38.490Z,100277.09
2024-02-28T01:23:05.623Z,100272.19
2024-02-28T01:25:32.393Z,100263.38
2024-02-28T01:27:59.595Z,100271.31
2024-02-28T01:30:27.135Z,100273.31
2024-02-28T01:32:54.093Z,100270.44
2024-02-28T01:35:20.896Z,100241.94
2024-02-28T01:37:47.566Z,100269.19
2024-02-28T01:40:14.623Z,100272.25
2024-02-28T01:42:41.455Z,100272.50
2024-02-28T01:45:10.362Z,100268.44
2024-02-28T01:47:38.294Z,100269.56
2024-02-28T01:50:05.998Z,100257.13
2024-02-28T01:52:33.066Z,100253.47
2024-02-28T01:55:00.088Z,100263.06
2024-02-28T01:57:28.435Z,100263.06
2024-02-28T01:59:57.060Z,100259.41
2024-02-28T02:02:23.690Z,100247.00
2024-02-28T02:04:50.365Z,100262.38
2024-02-28T02:07:17.016Z,100258.34
2024-02-28T02:09:43.802Z,100259.22
2024-02-28T02:12:10.603Z,100267.09
2024-02-28T02:14:37.195Z,100267.25
2024-02-28T02:17:03.796Z,100266.91
2024-02-28T02:24:59.665Z,100271.47
2024-02-28T02:27:27.243Z,100262.19
2024-02-28T02:29:53.896Z,100266.13
2024-02-28T02:32:20.529Z,100261.06
2024-02-28T02:34:47.181Z,100265.34
2024-02-28T02:37:13.771Z,100263.06
2024-02-28T02:39:40.455Z,100261.94
2024-02-28T02:42:07.221Z,100266.53
2024-02-28T02:44:34.967Z,100247.84
2024-02-28T02:47:01.658Z,100239.28
2024-02-28T02:49:28.248Z,100269.06
2024-02-28T02:51:54.864Z,100242.59
2024-02-28T02:54:21.647Z,100269.25
2024-02-28T02:56:48.278Z,100267.50
2024-02-28T02:59:14.980Z,100272.31
2024-02-28T03:01:41.672Z,100248.81
2024-02-28T03:04:08.275Z,100265.34
2024-02-28T03:06:35.192Z,100260.78
2024-02-28T03:09:01.892Z,100272.16
2024-02-28T03:11:28.636Z,100261.84
2024-02-28T03:13:55.344Z,100266.38
2024-02-28T03:16:22.186Z,100271.03
2024-02-28T03:18:48.862Z,100267.03
2024-02-28T03:21:15.867Z,100255.03
2024-02-28T03:23:42.524Z,100276.91
2024-02-28T03:26:09.231Z,100276.19
2024-02-28T03:28:35.857Z,100279.69
2024-02-28T03:31:02.933Z,100289.75
2024-02-28T03:33:32.816Z,100282.03
2024-02-28T03:35:59.482Z,100291.91
2024-02-28T03:38:26.223Z,100288.09
2024-02-28T03:40:52.921Z,100276.53
2024-02-28T03:43:19.551Z,100284.56
2024-02-28T03:45:46.352Z,100281.09
2024-02-28T03:48:13.117Z,100272.72
2024-02-28T03:50:39.789Z,100281.09
2024-02-28T03:53:06.526Z,100287.03
2024-02-28T03:55:33.217Z,100286.06
2024-02-28T03:57:59.919Z,100281.25
2024-02-28T04:00:27.316Z,100277.84
2024-02-28T04:02:54.028Z,100276.56
2024-02-28T04:05:20.710Z,100280.31
2024-02-28T04:07:47.390Z,100277.78
2024-02-28T04:10:14.055Z,100274.97
2024-02-28T04:12:40.818Z,100270.66
2024-02-28T04:15:07.760Z,100277.25
2024-02-28T04:17:34.432Z,100274.97
2024-02-28T04:20:05.587Z,100269.03
2024-02-28T04:22:32.881Z,100275.16
2024-02-28T04:24:59.595Z,100271.56
2024-02-28T04:27:26.326Z,100256.59
2024-02-28T04:29:53.058Z,100269.19
2024-02-28T04:32:19.767Z,100275.31
2024-02-28T04:34:46.386Z,100270.97
2024-02-28T04:37:13.097Z,100274.78
2024-02-28T04:39:39.746Z,100281.25
2024-02-28T04:42:06.422Z,100279.84
2024-02-28T04:44:33.056Z,100280.53
2024-02-28T04:46:59.910Z,100282.78
2024-02-28T04:49:27.114Z,100280.38
2024-02-28T04:51:54.167Z,100283.44
2024-02-28T04:54:21.303Z,100282.19
2024-02-28T04:56:47.954Z,100290.59
2024-02-28T04:59:14.884Z,100289.97
2024-02-28T05:01:43.267Z,100288.41
2024-02-28T05:04:10.827Z,100292.78
2024-02-28T05:06:40.422Z,100297.50
2024-02-28T05:09:08.018Z,100276.41
2024-02-28T05:11:34.727Z,100289.78
2024-02-28T05:14:01.411Z,100288.13
2024-02-28T05:16:28.068Z,100293.59
2024-02-28T05:18:54.813Z,100298.84
2024-02-28T05:21:21.602Z,100302.38
2024-02-28T05:23:48.324Z,100299.06
2024-02-28T05:26:15.235Z,100301.16
2024-02-28T05:28:42.009Z,100286.13
2024-02-28T05:31:25.822Z,100301.97
2024-02-28T05:33:58.746Z,100303.91
2024-02-28T05:36:27.838Z,100306.06
2024-02-28T05:38:55.851Z,100278.25
2024-02-28T05:41:22.834Z,100310.63
2024-02-28T05:43:49.994Z,100309.03
2024-02-28T05:46:17.837Z,100314.31
2024-02-28T05:48:45.393Z,100314.31
2024-02-28T05:51:14.374Z,100323.75
2024-02-28T05:53:44.474Z,100323.75
2024-02-28T05:56:14.995Z,100323.03
2024-02-28T05:58:42.940Z,100321.22
2024-02-28T06:01:10.535Z,100329.34
2024-02-28T06:03:38.306Z,100326.28
2024-02-28T06:06:08.497Z,100324.81
2024-02-28T06:08:36.312Z,100316.88
2024-02-28T06:11:03.206Z,100329.88
2024-02-28T06:13:32.868Z,100325.81
2024-02-28T06:15:59.818Z,100333.66
2024-02-28T06:18:28.498Z,100323.28
2024-02-28T06:20:56.491Z,100322.31
2024-02-28T06:23:28.567Z,100308.59
2024-02-28T06:25:57.071Z,100318.56
2024-02-28T06:28:23.970Z,100320.31
2024-02-28T06:30:50.784Z,100306.56
2024-02-28T06:33:17.683Z,100330.28
2024-02-28T06:35:44.401Z,100328.19
2024-02-28T06:38:11.038Z,100327.13
2024-02-28T06:40:37.764Z,100315.34
2024-02-28T06:43:05.158Z,100333.44
2024-02-28T06:45:31.996Z,100323.13
2024-02-28T06:47:59.432Z,100328.53
2024-02-28T06:50:26.117Z,100317.34
2024-02-28T06:52:55.068Z,100323.81
2024-02-28T06:55:22.226Z,100341.31
2024-02-28T06:57:49.295Z,100335.28
2024-02-28T07:00:17.375Z,100339.91
2024-02-28T07:02:44.646Z,100328.25
2024-02-28T07:05:11.805Z,100343.75
2024-02-28T07:07:38.672Z,100323.13
2024-02-28T07:10:05.980Z,100325.56
2024-02-28T07:12:33.225Z,100344.16
2024-02-28T07:15:00.194Z,100341.97
2024-02-28T07:17:27.046Z,100345.56
2024-02-28T07:19:53.653Z,100346.63
2024-02-28T07:22:20.623Z,100347.75
2024-02-28T07:24:47.359Z,100355.53
2024-02-28T07:27:14.085Z,100357.38
2024-02-28T07:29:40.797Z,100344.75
2024-02-28T07:32:07.796Z,100351.41
2024-02-28T07:34:35.073Z,100346.31
2024-02-28T07:37:02.009Z,100349.22
2024-02-28T07:39:28.929Z,100353.94
2024-02-28T07:41:56.603Z,100351.81
2024-02-28T07:44:23.956Z,100351.38
2024-02-28T07:46:52.338Z,100359.56
2024-02-28T07:49:19.661Z,100352.19
2024-02-28T07:51:46.773Z,100358.94
2024-02-28T07:54:13.669Z,100364.63
2024-02-28T07:56:40.622Z,100357.72
2024-02-28T07:59:07.353Z,100360.97
2024-02-28T08:01:35.060Z,100360.41
2024-02-28T08:04:03.333Z,100367.25
2024-02-28T08:06:30.343Z,100368.38
2024-02-28T08:08:57.145Z,100354.47
2024-02-28T08:11:24.572Z,100370.53
2024-02-28T08:13:51.344Z,100369.41
2024-02-28T08:16:18.232Z,100376.88
2024-02-28T08:18:45.709Z,100365.22
2024-02-28T08:21:12.596Z,100368.38
2024-02-28T08:23:39.713Z,100383.34
2024-02-28T08:26:06.421Z,100372.13
2024-02-28T08:28:33.149Z,100376.19
2024-02-28T15:19:13.633Z,100178.03
2024-02-28T15:21:40.416Z,100178.63
2024-02-28T15:24:07.402Z,100186.00
2024-02-28T15:26:42.525Z,100178.09
2024-02-28T15:29:13.304Z,100171.31
2024-02-28T15:31:40.086Z,100172.91
2024-02-28T15:34:06.910Z,100171.66
2024-02-28T15:36:33.650Z,100166.34
2024-02-28T15:39:00.271Z,100170.38
2024-02-28T15:41:27.009Z,100172.88
2024-02-28T15:43:53.585Z,100169.31
2024-02-28T15:46:20.298Z,100176.66
2024-02-28T15:48:47.043Z,100179.22
2024-02-28T15:51:13.811Z,100178.00
2024-02-28T15:53:40.508Z,100181.16
2024-02-28T15:56:07.558Z,100182.72
2024-02-28T15:58:35.328Z,100178.25
2024-02-28T16:01:02.219Z,100189.91
2024-02-28T16:03:29.122Z,100188.88
2024-02-28T16:05:55.782Z,100190.50
2024-02-28T16:08:24.735Z,100195.41
2024-02-28T16:10:51.447Z,100193.53
2024-02-28T16:13:18.185Z,100192.34
2024-02-28T16:15:44.856Z,100177.59
2024-02-28T16:18:11.564Z,100192.28
2024-02-28T16:20:38.157Z,100191.47
2024-02-28T16:23:05.501Z,100192.03
2024-02-28T16:25:32.623Z,100202.16
2024-02-28T16:27:59.315Z,100196.06
2024-02-28T16:30:26.032Z,100202.00
2024-02-28T16:32:53.135Z,100202.50
2024-02-28T16:35:19.881Z,100196.44
2024-02-28T16:37:46.551Z,100191.78
2024-02-28T16:40:13.308Z,100191.78
2024-02-28T16:42:40.165Z,100190.81
2024-02-28T16:45:07.501Z,100190.69
2024-02-28T16:47:34.122Z,100188.09
2024-02-28T16:50:00.751Z,100189.81
2024-02-28T16:52:27.940Z,100182.72
2024-02-28T16:54:54.655Z,100184.41
2024-02-28T16:57:21.332Z,100189.25
2024-02-28T16:59:47.982Z,100180.00
2024-02-28T17:02:14.563Z,100184.25
2024-02-28T17:04:41.231Z,100177.22
2024-02-28T17:07:08.037Z,100180.56
2024-02-28T17:09:34.776Z,100179.69
2024-02-28T17:12:01.444Z,100181.28
2024-02-28T17:14:28.157Z,100186.41
2024-02-28T17:16:54.790Z,100188.66
2024-02-28T17:19:21.402Z,100184.34
2024-02-28T17:21:48.129Z,100197.03
2024-02-28T17:24:14.898Z,100194.44
2024-02-28T17:26:41.936Z,100194.44
2024-02-28T17:29:09.213Z,100199.28
2024-02-28T17:31:35.964Z,100200.84
2024-02-28T17:34:02.798Z,100199.13
2024-02-28T17:36:29.687Z,100195.56
2024-02-28T17:38:56.336Z,100207.41
2024-02-28T17:41:23.067Z,100198.66
2024-02-28T17:43:49.758Z,100199.25
2024-02-28T17:46:16.473Z,100195.78
2024-02-28T17:48:44.606Z,100193.38
2024-02-28T17:51:11.585Z,100195.91
2024-02-28T17:53:38.211Z,100206.88
2024-02-28T17:56:07.047Z,100201.50
2024-02-28T17:58:33.624Z,100195.88
2024-02-28T18:01:03.251Z,100193.28
2024-02-28T18:03:29.969Z,100191.63
2024-02-28T18:05:56.833Z,100197.59
2024-02-28T18:08:23.521Z,100193.28
2024-02-28T18:10:50.248Z,100195.06
2024-02-28T18:13:19.000Z,100190.59
2024-02-28T18:15:45.729Z,100192.88
2024-02-28T18:18:12.791Z,100201.34
2024-02-28T18:20:39.440Z,100197.13
2024-02-28T18:23:07.591Z,100201.34
2024-02-28T18:25:35.589Z,100198.63
2024-02-28T18:28:03.530Z,100205.28
2024-02-28T18:30:30.635Z,100207.94
2024-02-28T18:32:57.382Z,100207.19
2024-02-28T18:35:24.105Z,100202.03
2024-02-28T18:37:50.674Z,100206.28
2024-02-28T18:40:17.488Z,100202.72
2024-02-28T18:42:44.787Z,100201.97
2024-02-28T18:45:12.471Z,100194.88
2024-02-28T18:47:40.149Z,100200.59
2024-02-28T18:50:08.182Z,100202.63
2024-02-28T18:52:34.840Z,100200.84
2024-02-28T18:55:01.684Z,100202.09
2024-02-28T18:57:28.348Z,100201.81
2024-02-28T18:59:55.834Z,100208.78
2024-02-28T19:02:22.605Z,100215.84
2024-02-28T19:04:49.236Z,100214.88
2024-02-28T19:07:16.829Z,100210.41
2024-02-28T19:09:43.587Z,100207.59
2024-02-28T19:12:10.314Z,100213.50
2024-02-28T19:14:37.779Z,100207.69
2024-02-28T19:17:04.948Z,100210.13
2024-02-28T19:19:34.734Z,100207.34
2024-02-28T19:22:01.468Z,100209.09
2024-02-28T19:24:28.132Z,100193.84
2024-02-28T19:26:55.097Z,100204.81
2024-02-28T19:29:21.790Z,100206.25
2024-02-28T19:31:49.150Z,100203.78
2024-02-28T19:34:15.883Z,100197.94
2024-02-28T19:36:42.676Z,100205.41
2024-02-28T19:39:09.384Z,100198.28
2024-02-28T19:41:36.130Z,100195.81
2024-02-28T19:44:05.940Z,100187.84
2024-02-28T19:46:34.449Z,100199.19
2024-02-28T19:49:01.984Z,100194.69
2024-02-28T19:51:28.794Z,100192.06
2024-02-28T19:53:55.528Z,100196.41
2024-02-28T19:56:23.469Z,100190.88
2024-02-28T19:58:52.266Z,100188.31
2024-02-28T20:01:19.161Z,100187.56
2024-02-28T20:03:45.926Z,100189.25
2024-02-28T20:06:12.646Z,100193.44
2024-02-28T20:08:40.949Z,100194.28
2024-02-28T20:11:08.971Z,100191.22
2024-02-28T20:13:35.764Z,100190.94
2024-02-28T20:16:02.573Z,100189.94
2024-02-28T20:18:29.409Z,100193.00
2024-02-28T20:20:56.145Z,100194.00
2024-02-28T20:23:23.013Z,100188.06
2024-02-28T20:25:50.191Z,100189.78
2024-02-28T20:28:22.396Z,100181.03
2024-02-28T20:30:50.000Z,100188.19
2024-02-28T20:33:16.802Z,100177.00
2024-02-28T20:35:43.509Z,100180.41
2024-02-28T20:38:10.332Z,100175.97
2024-02-28T20:40:37.186Z,100183.69
2024-02-28T20:43:04.305Z,100183.44
2024-02-28T20:45:31.214Z,100181.09
2024-02-28T20:47:57.889Z,100182.81
2024-02-28T20:50:26.192Z,100183.63
2024-02-28T20:52:53.264Z,100184.16
2024-02-28T20:55:21.564Z,100179.16
2024-02-28T20:57:48.338Z,100175.44
2024-02-28T21:00:16.767Z,100187.13
2024-02-28T21:02:43.546Z,100194.50
2024-02-28T21:05:10.683Z,100187.53
2024-02-28T21:07:45.522Z,100180.69
2024-02-28T21:10:19.226Z,100187.66
2024-02-28T21:12:45.932Z,100189.25
2024-02-28T21:15:12.682Z,100195.97
2024-02-28T21:17:39.871Z,100201.19
2024-02-28T21:20:07.072Z,100204.69
2024-02-28T21:22:36.602Z,100203.81
2024-02-28T21:25:04.101Z,100214.34
2024-02-28T21:27:31.074Z,100208.25
2024-02-28T21:30:00.056Z,100220.25
2024-02-28T21:32:26.937Z,100223.72
2024-02-28T21:34:53.702Z,100227.75
2024-02-28T21:37:20.312Z,100224.09
2024-02-28T21:39:47.278Z,100225.53
2024-02-28T21:42:13.977Z,100226.81
2024-02-28T21:44:40.843Z,100231.03
2024-02-28T21:47:09.001Z,100230.31
2024-02-28T21:49:35.767Z,100227.66
2024-02-28T21:52:02.530Z,100210.41
2024-02-28T21:54:29.201Z,100231.75
2024-02-28T21:56:56.919Z,100233.66
2024-02-28T21:59:23.550Z,100235.88
2024-02-28T22:01:50.242Z,100240.88
2024-02-28T22:04:16.947Z,100241.41
2024-02-28T22:06:43.639Z,100236.25
2024-02-28T22:09:10.318Z,100243.03
2024-02-28T22:11:37.029Z,100236.97
2024-02-28T22:14:03.944Z,100235.91
2024-02-28T22:16:30.546Z,100238.75
2024-02-28T22:18:57.291Z,100237.47
2024-02-28T22:21:23.967Z,100236.53
2024-02-28T22:23:50.613Z,100233.69
2024-02-28T22:26:20.259Z,100235.31
2024-02-28T22:28:47.099Z,100235.31
2024-02-28T22:31:14.344Z,100237.03
2024-02-28T22:33:41.244Z,100236.34
2024-02-28T22:36:12.109Z,100229.66
2024-02-28T22:38:39.588Z,100238.38
2024-02-28T22:41:06.739Z,100233.72
2024-02-28T22:43:34.835Z,100236.19
2024-02-28T22:46:02.671Z,100239.47
2024-02-28T22:48:29.487Z,100227.63
2024-02-28T22:50:56.421Z,100241.94
2024-02-28T22:53:23.178Z,100240.72
2024-02-28T22:55:50.038Z,100244.22
2024-02-28T22:58:16.749Z,100231.63
2024-02-28T23:00:44.208Z,100238.25
2024-02-28T23:03:11.038Z,100241.72
2024-02-28T23:05:37.633Z,100231.28
2024-02-28T23:08:04.842Z,100226.75
2024-02-28T23:10:32.493Z,100214.78
2024-02-28T23:13:00.928Z,100222.41
2024-02-28T23:15:27.891Z,100225.38
2024-02-28T23:17:55.907Z,100224.59
2024-02-28T23:20:26.805Z,100222.81
2024-02-28T23:22:55.018Z,100209.31
2024-02-28T23:25:22.535Z,100210.59
2024-02-28T23:27:50.972Z,100219.41
2024-02-28T23:30:17.950Z,100219.34
2024-02-28T23:32:44.753Z,100211.50
2024-02-28T23:35:11.601Z,100202.19
2024-02-28T23:37:39.736Z,100222.56
2024-02-28T23:40:10.509Z,100202.53
2024-02-28T23:42:37.401Z,100217.16
2024-02-28T23:45:04.877Z,100213.09
2024-02-28T23:47:32.079Z,100214.59
2024-02-28T23:49:58.842Z,100221.31
2024-02-28T23:52:25.585Z,100217.97
2024-02-28T23:54:52.358Z,100213.38
2024-02-28T23:57:19.013Z,100225.59
2024-02-28T23:59:45.611Z,100219.31
